createdAt,value
2023-05-10T18:35:11.252Z,11.00
2023-05-10T18:36:12.231Z,11.00
2023-05-10T18:37:12.181Z,12.00
2023-05-10T18:38:12.158Z,10.00
2023-05-10T18:39:12.164Z,8.00
2023-05-10T18:40:12.171Z,8.00
2023-05-10T18:41:12.159Z,6.00
2023-05-10T18:42:12.141Z,9.00
2023-05-10T18:43:12.104Z,13.00
2023-05-10T18:44:12.103Z,11.00
2023-05-10T19:25:46.010Z,2.00
2023-05-10T19:25:51.519Z,2.00
2023-05-10T19:26:51.566Z,1.00
2023-05-10T19:27:51.620Z,1.00
2023-05-10T19:29:08.966Z,1.00
2023-05-10T19:29:51.455Z,1.00
2023-05-10T19:30:51.487Z,0.00
2023-05-10T19:31:51.555Z,0.00
2023-05-10T19:32:51.518Z,0.00
2023-05-10T19:33:51.466Z,0.00
2023-05-10T19:34:51.446Z,0.00
2023-05-10T19:35:51.466Z,0.00
2023-05-10T19:36:51.407Z,0.00
2023-05-10T19:37:52.621Z,0.00
2023-05-10T19:38:51.523Z,0.00
2023-05-10T19:39:51.402Z,0.00
2023-05-10T19:40:51.520Z,0.00
2023-05-10T19:41:51.652Z,0.00
2023-05-10T19:42:51.365Z,0.00
2023-05-10T19:43:51.923Z,0.00
2023-05-10T19:44:51.517Z,0.00
2023-05-10T19:45:51.326Z,0.00
2023-05-10T19:46:51.387Z,0.00
2023-05-10T19:52:54.199Z,0.00
2023-05-10T20:02:13.281Z,0.00
2023-05-10T20:02:36.466Z,0.00
2023-05-10T20:03:23.764Z,0.00
2023-05-10T20:04:24.621Z,0.00
2023-05-10T20:05:23.630Z,0.00
2023-05-10T20:06:23.647Z,0.00
2023-05-10T20:07:23.558Z,0.00
2023-05-10T20:08:23.760Z,0.00
2023-05-10T20:09:23.510Z,0.00
2023-05-10T20:10:25.207Z,0.00
2023-05-10T20:11:23.559Z,0.00
2023-05-10T20:12:23.539Z,0.00
2023-05-10T20:13:23.493Z,0.00
2023-05-10T20:14:23.500Z,0.00
2023-05-10T20:15:23.490Z,0.00
2023-05-10T20:16:25.876Z,0.00
2023-05-10T20:17:23.514Z,0.00
2023-05-10T20:18:23.557Z,0.00
2023-05-10T20:19:23.420Z,0.00
2023-05-10T20:20:23.414Z,0.00
2023-05-10T20:21:23.408Z,0.00
2023-05-10T20:22:23.400Z,0.00
2023-05-10T20:23:23.377Z,0.00
2023-05-10T20:24:23.557Z,0.00
2023-05-10T20:25:23.440Z,0.00
2023-05-10T20:26:23.378Z,0.00
2023-05-10T20:27:23.635Z,0.00
2023-05-10T20:28:23.354Z,0.00
2023-05-10T20:29:23.316Z,0.00
2023-05-10T20:30:25.689Z,0.00
2023-05-10T20:31:27.946Z,0.00
2023-05-10T20:32:24.979Z,0.00
2023-05-10T20:33:23.313Z,0.00
2023-05-10T20:34:23.266Z,0.00
2023-05-10T20:35:23.262Z,0.00
2023-05-10T20:36:23.813Z,0.00
2023-05-10T20:37:23.272Z,0.00
2023-05-10T20:38:23.234Z,0.00
2023-05-10T20:39:23.209Z,0.00
2023-05-10T20:40:23.221Z,0.00
2023-05-10T20:41:23.213Z,0.00
2023-05-10T20:42:23.217Z,0.00
2023-05-10T20:43:23.578Z,0.00
2023-05-10T20:44:32.093Z,0.00
2023-05-10T20:45:23.212Z,0.00
2023-05-10T20:46:23.285Z,0.00
2023-05-10T20:47:28.106Z,0.00
2023-05-10T20:48:25.879Z,0.00
2023-05-10T20:49:23.211Z,0.00
2023-05-10T20:51:30.930Z,0.00
2023-05-10T20:51:42.901Z,0.00
2023-05-10T20:52:42.155Z,0.00
2023-05-10T20:53:37.396Z,0.00
2023-05-10T20:54:41.030Z,0.00
2023-05-10T20:55:38.199Z,0.00
2023-05-10T20:56:39.960Z,0.00
2023-05-10T20:57:36.509Z,0.00
2023-05-10T20:58:45.959Z,0.00
2023-05-10T20:59:36.395Z,0.00
2023-05-10T21:00:37.140Z,0.00
2023-05-10T21:27:50.098Z,0.00
2023-05-10T21:28:49.611Z,0.00
2023-05-10T21:29:50.057Z,0.00
2023-05-10T21:30:49.522Z,0.00
2023-05-10T21:31:49.606Z,0.00
2023-05-10T21:32:49.566Z,0.00
2023-05-10T21:33:49.946Z,0.00
2023-05-10T21:34:49.516Z,0.00
2023-05-10T21:35:50.650Z,0.00
2023-05-10T21:36:49.480Z,0.00
2023-05-10T21:37:51.002Z,0.00
2023-05-10T21:38:50.615Z,0.00
2023-05-10T21:39:50.654Z,0.00
2023-05-10T21:40:49.471Z,0.00
2023-05-10T21:41:51.076Z,0.00
2023-05-10T21:44:00.319Z,0.00
2023-05-10T21:45:06.440Z,0.00
2023-05-10T21:46:01.347Z,0.00
2023-05-10T21:47:01.247Z,0.00
2023-05-10T21:48:01.238Z,0.00
2023-05-10T21:49:01.253Z,0.00
2023-05-10T21:50:01.206Z,0.00
2023-05-10T21:51:01.179Z,0.00
2023-05-10T21:52:01.216Z,0.00
2023-05-10T21:53:01.156Z,0.00
2023-05-10T21:54:01.198Z,0.00
2023-05-10T21:55:01.138Z,0.00
2023-05-10T21:56:01.151Z,0.00
2023-05-10T21:57:01.116Z,0.00
2023-05-10T21:58:01.137Z,0.00
2023-05-10T21:59:01.129Z,0.00
2023-05-10T22:00:01.113Z,0.00
2023-05-10T22:01:01.209Z,0.00
2023-05-10T22:02:01.209Z,0.00
2023-05-10T22:03:08.595Z,0.00
2023-05-10T22:04:01.062Z,0.00
2023-05-10T22:05:01.136Z,0.00
2023-05-10T22:06:01.519Z,0.00
2023-05-10T22:07:04.312Z,0.00
2023-05-10T22:08:01.050Z,0.00
2023-05-10T22:09:01.610Z,0.00
2023-05-10T22:10:01.073Z,0.00
2023-05-10T22:11:02.697Z,0.00
2023-05-10T22:12:01.019Z,0.00
2023-05-10T22:13:02.627Z,0.00
2023-05-10T22:14:04.203Z,0.00
2023-05-10T22:15:10.478Z,0.00
2023-05-10T22:16:00.910Z,0.00
2023-05-10T22:17:05.469Z,0.00
2023-05-10T22:18:00.917Z,0.00
2023-05-10T22:19:01.732Z,0.00
2023-05-10T22:20:00.958Z,0.00
2023-05-10T22:21:15.522Z,0.00
2023-05-10T22:22:00.894Z,0.00
2023-05-10T22:23:00.888Z,0.00
2023-05-10T22:24:00.859Z,0.00
2023-05-10T22:25:00.819Z,0.00
2023-05-10T22:26:00.832Z,0.00
2023-05-10T22:27:00.798Z,0.00
2023-05-10T22:28:02.847Z,0.00
2023-05-10T22:29:00.772Z,0.00
2023-05-10T22:30:00.756Z,0.00
2023-05-10T22:31:00.752Z,0.00
2023-05-10T22:32:00.744Z,0.00
2023-05-10T22:33:00.736Z,0.00
2023-05-10T22:34:00.739Z,0.00
2023-05-10T22:35:00.818Z,0.00
2023-05-10T22:36:00.688Z,0.00
2023-05-10T22:37:00.661Z,0.00
2023-05-10T22:38:00.680Z,0.00
2023-05-10T22:39:00.706Z,0.00
2023-05-10T22:40:00.685Z,0.00
2023-05-10T22:41:06.317Z,0.00
2023-05-10T22:56:56.778Z,0.00
2023-05-10T22:57:58.610Z,0.00
2023-05-10T22:58:57.744Z,0.00
2023-05-10T22:59:57.745Z,0.00
2023-05-10T23:00:57.689Z,0.00
2023-05-10T23:01:57.745Z,0.00
2023-05-10T23:02:57.699Z,0.00
2023-05-10T23:03:57.657Z,0.00
2023-05-10T23:04:57.689Z,0.00
2023-05-10T23:05:57.615Z,0.00
2023-05-10T23:06:57.621Z,0.00
2023-05-10T23:07:57.622Z,0.00
2023-05-10T23:08:57.604Z,0.00
2023-05-10T23:09:57.594Z,0.00
2023-05-10T23:10:57.583Z,0.00
2023-05-10T23:11:57.650Z,0.00
2023-05-10T23:12:57.577Z,0.00
2023-05-10T23:13:57.588Z,0.00
2023-05-10T23:14:57.770Z,0.00
2023-05-10T23:15:57.743Z,0.00
2023-05-10T23:16:57.633Z,0.00
2023-05-10T23:17:57.598Z,0.00
2023-05-10T23:18:57.581Z,0.00
2023-05-10T23:19:57.483Z,0.00
2023-05-10T23:20:57.470Z,0.00
2023-05-10T23:21:57.535Z,0.00
2023-05-10T23:22:57.452Z,0.00
2023-05-10T23:23:57.511Z,0.00
2023-05-10T23:24:57.500Z,0.00
2023-05-10T23:25:57.437Z,0.00
2023-05-10T23:26:57.430Z,0.00
2023-05-10T23:27:57.503Z,0.00
2023-05-10T23:28:57.380Z,0.00
2023-05-10T23:29:57.384Z,0.00
2023-05-10T23:30:57.386Z,0.00
2023-05-10T23:31:57.442Z,0.00
2023-05-10T23:33:04.319Z,0.00
2023-05-10T23:33:57.352Z,0.00
2023-05-10T23:34:57.358Z,0.00
2023-05-10T23:36:02.518Z,0.00
2023-05-10T23:36:57.321Z,0.00
2023-05-10T23:37:57.289Z,0.00
2023-05-10T23:38:57.330Z,0.00
2023-05-10T23:39:57.294Z,0.00
2023-05-10T23:40:57.461Z,0.00
2023-05-10T23:41:57.260Z,0.00
2023-05-10T23:42:57.246Z,0.00
2023-05-10T23:43:57.266Z,0.00
2023-05-10T23:44:57.258Z,0.00
2023-05-10T23:45:57.357Z,0.00
2023-05-10T23:46:57.237Z,0.00
2023-05-10T23:47:57.273Z,0.00
2023-05-10T23:48:57.223Z,0.00
2023-05-10T23:49:57.198Z,0.00
2023-05-10T23:50:57.184Z,0.00
2023-05-10T23:51:57.160Z,0.00
2023-05-10T23:52:57.191Z,0.00
2023-05-10T23:56:41.948Z,0.00
2023-05-10T23:57:42.949Z,0.00
2023-05-10T23:58:42.919Z,0.00
2023-05-10T23:59:42.890Z,0.00
